Time Latitude Longitude Accuracy (66% radius in meters) Altitude (meters) Speed (km/hour) Bearing (degrees) Battery (%) GPS flag
08:16:34 55.921136 37.361811 4 201 0 15.61909866333 76 1 delete
08:16:02 55.921080 37.361745 6 191 1.7190407514572 47.242938995361 76 1 delete
08:16:00 55.921045 37.361694 4 188 1.9915996789932 51.993320465088 76 1 delete
08:15:57 55.921001 37.361645 6 184 1.5621410608292 50.428825378418 76 1 delete
08:15:54 55.920960 37.361585 6 180 1.5064140558243 67.50439453125 76 1 delete
08:15:44 55.920933 37.361483 4 178 1.2659882307053 4.5483603477478 76 1 delete
08:15:42 55.920884 37.361467 4 178 4.2785201072693 27.897594451904 76 1 delete
08:15:40 55.920820 37.361412 4 179 4.7306308746338 31.753173828125 76 1 delete
08:15:38 55.920747 37.361340 4 179 5.5364165306091 34.634300231934 76 1 delete
08:15:37 55.920705 37.361291 4 178 5.5629024505615 35.602558135986 76 1 delete
08:15:36 55.920664 37.361243 4 177 5.4325160980225 36.891998291016 76 1 delete
08:15:35 55.920622 37.361192 4 176 5.2018485069275 38.355129241943 76 1 delete
08:15:33 55.920550 37.361098 4 176 5.0949954986572 39.939552307129 76 1 delete
08:15:32 55.920510 37.361039 4 178 5.1815910339355 40.722629547119 76 1 delete
08:15:31 55.920473 37.360981 4 180 4.9999670982361 40.303386688232 76 1 delete
08:15:30 55.920437 37.360925 4 180 4.765025138855 40.500923156738 76 1 delete
08:15:29 55.920400 37.360870 4 180 4.8776273727417 41.11540222168 76 1 delete
08:15:28 55.920363 37.360816 4 178 4.8469862937927 42.337581634521 76 1 delete
08:15:26 55.920301 37.360711 4 178 4.8870897293091 43.457080841064 76 1 delete
08:15:25 55.920266 37.360652 4 179 4.8582639694214 43.030857086182 76 1 delete
08:15:23 55.920202 37.360545 4 178 4.8145956993103 41.897678375244 76 1 delete
08:15:21 55.920141 37.360447 4 174 4.8839602470398 39.524257659912 76 1 delete
08:15:20 55.920105 37.360390 4 174 4.9875087738037 37.850208282471 76 1 delete
08:15:19 55.920067 37.360333 4 175 4.6828675270081 35.689300537109 76 1 delete
08:15:17 55.919998 37.360239 4 176 4.6206607818604 34.603900909424 76 1 delete
08:15:16 55.919958 37.360187 4 175 5.0684976577759 33.856609344482 76 1 delete
08:15:15 55.919919 37.360136 4 175 5.0512247085571 33.515174865723 76 1 delete
08:15:13 55.919850 37.360058 4 176 4.6971354484558 33.94751739502 76 1 delete
08:15:11 55.919782 37.359987 4 179 4.7070622444153 34.724197387695 76 1 delete
08:15:09 55.919709 37.359906 4 180 4.8317832946777 37.807121276855 76 1 delete
08:15:07 55.919641 37.359813 4 179 4.8516483306885 38.590766906738 76 1 delete
08:15:06 55.919603 37.359767 4 179 4.7718462944031 39.085815429688 76 1 delete
08:15:04 55.919534 37.359680 4 178 4.713924407959 38.758125305176 76 1 delete
08:15:03 55.919496 37.359630 4 177 4.8006525039673 37.706691741943 76 1 delete
08:15:02 55.919455 37.359581 4 176 5.2258906364441 37.747898101807 76 1 delete
08:15:01 55.919409 37.359526 4 176 5.4133019447327 39.132717132568 76 1 delete
08:14:59 55.919331 37.359428 4 173 5.7213411331177 42.453384399414 76 1 delete
08:14:58 55.919296 37.359377 4 171 5.630735874176 44.335479736328 76 1 delete
08:14:56 55.919225 37.359266 6 173 5.5898590087891 48.302055358887 76 1 delete
08:14:54 55.919165 37.359150 6 176 5.3303146362305 54.077919006348 76 1 delete
08:14:53 55.919132 37.359071 4 175 5.3783960342407 54.624210357666 76 1 delete
08:14:52 55.919101 37.358998 4 174 5.4428577423096 55.450786590576 76 1 delete
08:14:51 55.919067 37.358915 4 177 4.8032069206238 55.950290679932 76 1 delete
08:14:50 55.919036 37.358841 4 178 4.8455667495728 55.524112701416 76 1 delete
08:14:49 55.919005 37.358769 4 177 4.7848725318909 55.45104598999 76 1 delete
08:14:48 55.918973 37.358694 4 175 4.9450545310974 54.893836975098 76 1 delete
08:14:46 55.918918 37.358561 4 173 4.9778389930725 55.872203826904 76 1 delete
08:14:45 55.918891 37.358490 6 174 4.9534878730774 56.675163269043 76 1 delete
08:14:44 55.918867 37.358421 6 174 4.4017562866211 57.40433883667 76 1 delete
08:14:42 55.918826 37.358306 6 172 4.4193334579468 53.749004364014 76 1 delete